createdAt,value
2022-12-04T00:03:42.239Z,9.95
2022-12-04T00:08:45.955Z,9.50
2022-12-04T00:13:47.833Z,10.30
2022-12-04T00:18:49.888Z,9.88
2022-12-04T00:23:52.299Z,10.68
2022-12-04T00:28:54.410Z,10.98
2022-12-04T00:33:56.481Z,9.80
2022-12-04T00:39:00.483Z,9.80
2022-12-04T00:44:02.898Z,9.73
2022-12-04T00:49:04.721Z,10.05
2022-12-04T00:54:06.508Z,10.27
2022-12-04T00:59:08.490Z,10.75
2022-12-04T01:04:10.277Z,10.63
2022-12-04T01:09:12.027Z,10.20
2022-12-04T01:14:13.806Z,9.05
2022-12-04T01:19:15.750Z,10.05
2022-12-04T01:24:17.686Z,9.50
2022-12-04T01:29:19.520Z,9.07
2022-12-04T01:34:21.287Z,9.75
2022-12-04T01:39:23.067Z,10.05
2022-12-04T01:44:26.124Z,10.15
2022-12-04T01:49:47.914Z,9.15
2022-12-04T01:54:54.426Z,9.68
2022-12-04T02:00:00.675Z,9.05
2022-12-04T02:05:05.649Z,8.55
2022-12-04T02:10:09.858Z,9.38
2022-12-04T02:15:48.511Z,9.30
2022-12-04T02:21:05.151Z,8.15
2022-12-04T02:26:34.575Z,9.07
2022-12-04T02:32:06.301Z,8.52
2022-12-04T02:37:31.683Z,8.68
2022-12-04T02:42:45.712Z,8.02
2022-12-04T02:47:47.592Z,9.03
2022-12-04T02:52:58.687Z,7.07
2022-12-04T02:58:06.005Z,8.40
2022-12-04T03:03:27.545Z,8.70
2022-12-04T03:08:37.294Z,8.63
2022-12-04T03:13:50.075Z,8.27
2022-12-04T03:19:07.750Z,8.73
2022-12-04T03:24:19.443Z,8.63
2022-12-04T03:29:37.318Z,8.68
2022-12-04T03:35:01.423Z,8.82
2022-12-04T03:40:15.293Z,8.90
2022-12-04T03:45:43.382Z,9.23
2022-12-04T03:50:59.574Z,8.63
2022-12-04T03:56:30.772Z,9.07
2022-12-04T04:01:41.673Z,8.88
2022-12-04T04:06:52.744Z,8.50
2022-12-04T04:12:01.821Z,8.30
2022-12-04T04:17:38.020Z,8.32
2022-12-04T04:22:59.441Z,9.40
2022-12-04T04:28:01.192Z,8.32
2022-12-04T04:33:16.282Z,8.48
2022-12-04T04:38:31.265Z,8.93
2022-12-04T04:43:39.978Z,8.85
2022-12-04T04:48:47.504Z,9.45
2022-12-04T04:53:52.240Z,9.00
2022-12-04T04:58:54.045Z,9.48
2022-12-04T05:03:55.790Z,8.75
2022-12-04T05:08:57.622Z,9.30
2022-12-04T05:13:59.365Z,8.07
2022-12-04T05:19:19.984Z,8.63
2022-12-04T05:24:21.743Z,8.65
2022-12-04T05:29:23.462Z,8.38
2022-12-04T05:34:25.282Z,9.20
2022-12-04T05:39:27.149Z,8.82
2022-12-04T05:44:28.896Z,8.20
2022-12-04T05:49:31.701Z,8.80
2022-12-04T05:54:33.463Z,8.75
2022-12-04T05:59:35.493Z,9.35
2022-12-04T06:04:38.485Z,8.73
2022-12-04T06:09:40.241Z,8.32
2022-12-04T06:14:41.967Z,20.00
2022-12-04T06:19:43.734Z,13.88
2022-12-04T06:24:45.657Z,8.60
2022-12-04T06:29:47.521Z,8.98
2022-12-04T06:34:53.879Z,10.07
2022-12-04T06:39:55.938Z,9.32
2022-12-04T06:44:57.823Z,9.75
2022-12-04T06:49:59.573Z,10.02
2022-12-04T06:55:01.398Z,10.23
2022-12-04T07:00:03.921Z,11.18
2022-12-04T07:05:06.074Z,13.32
2022-12-04T07:10:08.119Z,9.15
2022-12-04T07:15:10.393Z,8.75
2022-12-04T07:20:12.592Z,8.07
2022-12-04T07:25:14.347Z,8.20
2022-12-04T07:30:16.466Z,7.13
2022-12-04T07:35:18.250Z,7.68
2022-12-04T07:40:19.994Z,8.02
2022-12-04T07:45:21.863Z,7.00
2022-12-04T07:50:23.619Z,8.68
2022-12-04T07:55:25.469Z,7.88
2022-12-04T08:00:27.267Z,7.65
2022-12-04T08:05:29.020Z,7.78
2022-12-04T08:10:30.806Z,8.10
2022-12-04T08:15:34.104Z,7.63
2022-12-04T08:20:35.865Z,7.28
2022-12-04T08:25:41.563Z,7.75
2022-12-04T08:30:43.381Z,7.10
2022-12-04T08:35:45.286Z,7.10
2022-12-04T08:40:47.034Z,7.32
2022-12-04T08:45:59.852Z,6.65
2022-12-04T08:51:04.324Z,6.22
2022-12-04T08:56:06.595Z,6.05
2022-12-04T09:01:11.069Z,6.30
2022-12-04T09:06:15.260Z,6.18
2022-12-04T09:11:20.535Z,6.20
2022-12-04T09:16:24.510Z,6.07
2022-12-04T09:21:26.521Z,6.55
2022-12-04T09:26:30.826Z,5.75
2022-12-04T09:31:32.825Z,5.80
2022-12-04T09:36:34.656Z,5.82
2022-12-04T09:41:36.348Z,5.28
2022-12-04T09:46:42.823Z,5.80
2022-12-04T09:51:46.550Z,5.90
2022-12-04T09:56:59.587Z,5.70
2022-12-04T10:02:29.631Z,6.45
2022-12-04T10:07:37.667Z,7.97
2022-12-04T10:12:54.934Z,11.18
2022-12-04T10:18:26.332Z,11.07
2022-12-04T10:23:43.155Z,8.32
2022-12-04T10:28:55.590Z,6.40
2022-12-04T10:34:05.542Z,6.00
2022-12-04T10:39:34.446Z,7.18
2022-12-04T10:44:36.227Z,7.00
2022-12-04T10:49:38.617Z,6.50
2022-12-04T10:54:51.770Z,6.18
2022-12-04T10:59:57.484Z,5.90
2022-12-04T11:05:02.821Z,6.30
2022-12-04T11:10:25.486Z,6.13
2022-12-04T11:15:27.440Z,6.20
2022-12-04T11:20:29.298Z,6.20
2022-12-04T11:25:37.010Z,6.28
2022-12-04T11:30:39.000Z,5.72
2022-12-04T11:35:40.832Z,5.72
2022-12-04T11:40:52.238Z,5.78
2022-12-04T11:45:55.504Z,6.68
2022-12-04T11:51:05.869Z,6.03
2022-12-04T11:56:34.388Z,7.57
2022-12-04T12:02:01.971Z,6.22
2022-12-04T12:07:10.697Z,5.63
2022-12-04T12:12:26.568Z,6.05
2022-12-04T12:17:46.898Z,6.22
2022-12-04T12:22:51.866Z,6.13
2022-12-04T12:28:02.988Z,5.65
2022-12-04T12:33:36.140Z,5.53
2022-12-04T12:38:50.884Z,6.32
2022-12-04T12:49:10.842Z,5.70
2022-12-04T12:54:22.052Z,5.80
2022-12-04T12:59:27.235Z,8.05
2022-12-04T13:04:40.196Z,6.43
2022-12-04T13:09:48.291Z,6.75
2022-12-04T13:14:50.058Z,12.80
2022-12-04T13:19:56.300Z,7.88
2022-12-04T13:25:11.238Z,6.75
2022-12-04T13:35:48.398Z,6.15
2022-12-04T13:41:04.073Z,6.07
2022-12-04T13:46:21.610Z,7.07
2022-12-04T13:51:45.888Z,6.47
2022-12-04T13:56:57.568Z,7.67
2022-12-04T14:02:21.748Z,6.53
2022-12-04T14:07:36.901Z,6.83
2022-12-04T14:12:42.127Z,8.00
2022-12-04T14:17:46.358Z,6.93
2022-12-04T14:22:48.106Z,8.35
2022-12-04T14:27:52.443Z,8.63
2022-12-04T14:33:09.582Z,10.48
2022-12-04T14:38:18.614Z,11.82
2022-12-04T14:43:27.342Z,13.77
2022-12-04T14:48:50.143Z,10.13
2022-12-04T14:54:22.672Z,11.07
2022-12-04T14:59:42.374Z,10.27
2022-12-04T15:04:46.387Z,9.30
2022-12-04T15:10:15.784Z,14.40
2022-12-04T15:15:24.963Z,9.93
2022-12-04T15:20:31.288Z,11.35
2022-12-04T15:26:12.707Z,9.02
2022-12-04T15:31:20.155Z,10.57
2022-12-04T15:36:46.991Z,14.40
2022-12-04T15:41:49.439Z,10.13
2022-12-04T15:46:54.507Z,9.00
2022-12-04T15:52:13.204Z,10.23
2022-12-04T15:57:42.180Z,16.70
2022-12-04T16:03:24.265Z,14.23
2022-12-04T16:08:31.743Z,16.23
2022-12-04T16:13:36.291Z,13.82
2022-12-04T16:23:40.444Z,11.77
2022-12-04T16:28:42.220Z,11.85
2022-12-04T16:33:44.017Z,11.15
2022-12-04T16:38:45.982Z,11.73
2022-12-04T16:43:55.294Z,16.60
2022-12-04T16:48:57.106Z,12.95
2022-12-04T16:53:59.044Z,12.93
2022-12-04T16:59:00.835Z,12.68
2022-12-04T17:04:02.615Z,12.80
2022-12-04T17:09:05.446Z,13.25
2022-12-04T17:14:07.455Z,13.73
2022-12-04T17:19:10.372Z,14.05
2022-12-04T17:24:12.089Z,15.10
2022-12-04T17:29:13.855Z,12.82
2022-12-04T17:34:16.406Z,14.02
2022-12-04T17:39:18.630Z,17.33
2022-12-04T17:44:20.537Z,40.95
2022-12-04T17:49:22.314Z,18.17
2022-12-04T17:54:24.071Z,17.35
2022-12-04T17:59:25.998Z,17.08
2022-12-04T18:04:27.860Z,20.75
2022-12-04T18:09:30.152Z,33.15
2022-12-04T18:14:33.187Z,22.83
2022-12-04T18:19:34.971Z,17.08
2022-12-04T18:24:36.861Z,14.10
2022-12-04T18:29:38.661Z,14.30
2022-12-04T18:34:40.482Z,13.88
2022-12-04T18:39:42.331Z,16.08
2022-12-04T18:44:44.223Z,16.27
2022-12-04T18:49:47.083Z,14.75
2022-12-04T18:54:48.846Z,15.32
2022-12-04T18:59:50.610Z,13.50
2022-12-04T19:04:52.482Z,14.60
2022-12-04T19:10:11.246Z,12.35
2022-12-04T19:15:13.702Z,13.70
2022-12-04T19:20:18.155Z,14.13
2022-12-04T19:25:20.024Z,15.90
2022-12-04T19:30:21.849Z,18.77
2022-12-04T19:35:23.612Z,16.30
2022-12-04T19:40:25.453Z,17.50
2022-12-04T19:45:27.245Z,17.05
2022-12-04T19:50:29.036Z,21.92
2022-12-04T19:55:30.876Z,19.33
2022-12-04T20:00:33.108Z,17.60
2022-12-04T20:05:37.903Z,18.60
2022-12-04T20:10:39.708Z,19.90
2022-12-04T20:15:42.346Z,18.40
2022-12-04T20:20:45.709Z,17.50
2022-12-04T20:25:48.298Z,17.80
2022-12-04T20:30:50.220Z,19.25
2022-12-04T20:35:52.160Z,17.42
2022-12-04T20:40:54.447Z,17.67
2022-12-04T20:45:56.653Z,18.27
2022-12-04T20:51:01.109Z,19.42
2022-12-04T20:56:03.531Z,18.95
2022-12-04T21:01:10.409Z,16.00
2022-12-04T21:06:34.468Z,19.60
2022-12-04T21:11:42.557Z,19.10
2022-12-04T21:16:45.191Z,19.33
2022-12-04T21:21:47.620Z,16.42
2022-12-04T21:26:49.441Z,19.30
2022-12-04T21:31:51.215Z,19.20
2022-12-04T21:36:53.358Z,19.65
2022-12-04T21:42:13.744Z,16.67
2022-12-04T21:47:15.661Z,18.75
2022-12-04T21:52:17.891Z,16.98
2022-12-04T21:57:20.480Z,18.02
2022-12-04T22:02:22.542Z,19.77
2022-12-04T22:07:24.348Z,19.15
2022-12-04T22:12:48.650Z,14.98
2022-12-04T22:17:48.062Z,13.52
2022-12-04T22:22:49.945Z,13.45
2022-12-04T22:27:53.323Z,18.77
2022-12-04T22:32:55.184Z,18.05
2022-12-04T22:37:56.945Z,14.90
2022-12-04T22:42:58.693Z,14.98
2022-12-04T22:48:00.433Z,16.60
2022-12-04T22:53:02.171Z,13.80
2022-12-04T22:58:04.545Z,13.07
2022-12-04T23:03:06.357Z,14.95
2022-12-04T23:08:08.522Z,14.50
2022-12-04T23:13:10.638Z,14.18
2022-12-04T23:18:12.397Z,16.02
2022-12-04T23:23:14.236Z,16.02
2022-12-04T23:28:16.292Z,15.65
2022-12-04T23:33:18.149Z,16.00
2022-12-04T23:38:21.018Z,14.48
2022-12-04T23:43:22.769Z,15.38
2022-12-04T23:48:25.624Z,15.57
2022-12-04T23:53:27.434Z,16.27
2022-12-04T23:58:29.264Z,15.23
